Airfield :
LOGIN :

Register | Disclaimer

   EN    FR    IT 

 










Legend :    VFR   Marginal VFR   IFR   Intensive IFR   Very Intensive IFR
Visi :
Ceiling :
>= 8 km
>= 3000ft
5 to 8 km
1000 to 3000 ft
1500m to 5 km
500 to 1000 ft
800 to 1500m
200 to 500 ft
< 800m
< 200 ft
Symbols :   Thunderstorms  Fog  Heavy snow  Heavy precipitations  Wind > 20 kt
SIGMETs :     Misc.  Thunderstorms  Icing  Turbulence  Mountain Waves  Volcanic Ashes







- Airport Elevation : 436 ft
- IATA code : ANG
- Download approach charts


LFBU - Angoulême Brie Champniers

CURRENT METAR :
  • 181630Z AUTO 18008KT 150V210 9000 NSC 30/15 Q1009 NOSIG

EXPIRED METARs :
  • 181600Z AUTO 19008KT 160V220 CAVOK 30/14 Q1009 NOSIG
  • 181530Z AUTO 18010KT 140V210 CAVOK 30/14 Q1009 NOSIG
  • 181500Z AUTO 17008KT 110V200 8000 NSC 30/15 Q1009 NOSIG
  • 181430Z AUTO 16009KT 110V210 8000 NSC 30/15 Q1009 NOSIG
  • 181400Z AUTO 19008KT 150V240 8000 NSC 30/15 Q1009 NOSIG

TAF TAF LFBU
Valid from the 18 at 12:00 until the 19 at 12:00 UTC


181100Z 1812/1912 12010KT CAVOK
BECMG 1820/1822 32010KT
TEMPO 1822/1903 -SHRA BKN070TCU
PROB30
TEMPO 1822/1901 VRB15G30KT 4000 TSRAGR SCT015 BKN050CB
BECMG 1906/1908 27010KT
No reported NOTAMs for that airfield.



MET'MAP, your aeronautical weather chart ! - Copyright ORBIFLY December 2007 - Disclaimer

ORBIFLY MET'MAP TEAM :

Programming & Development : Alexandra Zaïnal
Concept & Development : Baudouin d'Aumeries
Co-Development & Prog : Marc-Olivier Méhu
Technical & hardware support : Manuel Goepfert

Contact : metmap@orbifly.com




SOURCES & CREDITS :

   NOAA